sensor_id;sensor_type;location;lat;lon;timestamp;P1;durP1;ratioP1;P2;durP2;ratioP2
31732;SDS011;18312;51.486;7.144;2023-11-19T00:00:58;1279.85;;;999.90;;
31732;SDS011;18312;51.486;7.144;2023-11-19T00:03:26;1280.88;;;999.90;;
31732;SDS011;18312;51.486;7.144;2023-11-19T00:05:53;1284.93;;;999.90;;
31732;SDS011;18312;51.486;7.144;2023-11-19T00:08:20;1280.75;;;999.90;;
31732;SDS011;18312;51.486;7.144;2023-11-19T00:10:49;1282.07;;;999.90;;
31732;SDS011;18312;51.486;7.144;2023-11-19T00:13:16;1285.88;;;999.90;;
31732;SDS011;18312;51.486;7.144;2023-11-19T00:15:43;1286.97;;;999.90;;
31732;SDS011;18312;51.486;7.144;2023-11-19T00:18:12;1286.63;;;999.90;;
31732;SDS011;18312;51.486;7.144;2023-11-19T00:20:40;1290.72;;;999.90;;
31732;SDS011;18312;51.486;7.144;2023-11-19T00:23:09;1288.10;;;999.90;;
31732;SDS011;18312;51.486;7.144;2023-11-19T00:25:36;1293.65;;;999.90;;
31732;SDS011;18312;51.486;7.144;2023-11-19T00:28:04;1302.30;;;999.90;;
31732;SDS011;18312;51.486;7.144;2023-11-19T00:30:30;1300.35;;;999.90;;
31732;SDS011;18312;51.486;7.144;2023-11-19T00:32:57;1296.70;;;999.90;;
31732;SDS011;18312;51.486;7.144;2023-11-19T00:35:24;1301.80;;;999.90;;
31732;SDS011;18312;51.486;7.144;2023-11-19T00:37:52;1292.68;;;999.90;;
31732;SDS011;18312;51.486;7.144;2023-11-19T00:40:19;1291.80;;;999.90;;
31732;SDS011;18312;51.486;7.144;2023-11-19T00:42:48;1295.82;;;999.90;;
31732;SDS011;18312;51.486;7.144;2023-11-19T00:45:15;1304.50;;;999.90;;
31732;SDS011;18312;51.486;7.144;2023-11-19T00:47:42;1293.10;;;999.90;;
31732;SDS011;18312;51.486;7.144;2023-11-19T00:50:09;1296.32;;;999.90;;
31732;SDS011;18312;51.486;7.144;2023-11-19T00:52:35;1294.90;;;999.90;;
31732;SDS011;18312;51.486;7.144;2023-11-19T00:55:04;1289.80;;;999.90;;
31732;SDS011;18312;51.486;7.144;2023-11-19T00:57:31;1301.77;;;999.90;;
31732;SDS011;18312;51.486;7.144;2023-11-19T00:59:58;1296.00;;;999.90;;
31732;SDS011;18312;51.486;7.144;2023-11-19T01:02:25;1300.47;;;999.90;;
31732;SDS011;18312;51.486;7.144;2023-11-19T01:04:52;1294.50;;;999.90;;
31732;SDS011;18312;51.486;7.144;2023-11-19T01:07:21;1300.53;;;999.90;;
31732;SDS011;18312;51.486;7.144;2023-11-19T01:09:49;1299.53;;;999.90;;
31732;SDS011;18312;51.486;7.144;2023-11-19T01:12:18;1298.32;;;999.90;;
31732;SDS011;18312;51.486;7.144;2023-11-19T01:14:45;1307.68;;;999.90;;
31732;SDS011;18312;51.486;7.144;2023-11-19T01:17:11;1296.97;;;999.90;;
31732;SDS011;18312;51.486;7.144;2023-11-19T01:19:38;1299.35;;;999.90;;
31732;SDS011;18312;51.486;7.144;2023-11-19T01:22:05;1297.30;;;999.90;;
31732;SDS011;18312;51.486;7.144;2023-11-19T01:24:32;1295.93;;;999.90;;
31732;SDS011;18312;51.486;7.144;2023-11-19T01:26:59;1300.30;;;999.90;;
31732;SDS011;18312;51.486;7.144;2023-11-19T01:29:27;1295.93;;;999.90;;
31732;SDS011;18312;51.486;7.144;2023-11-19T01:31:54;1298.45;;;999.90;;
31732;SDS011;18312;51.486;7.144;2023-11-19T01:34:21;1298.07;;;999.90;;
31732;SDS011;18312;51.486;7.144;2023-11-19T01:36:48;1297.25;;;999.90;;
31732;SDS011;18312;51.486;7.144;2023-11-19T01:39:14;1301.97;;;999.90;;
31732;SDS011;18312;51.486;7.144;2023-11-19T01:41:42;1298.57;;;999.90;;
31732;SDS011;18312;51.486;7.144;2023-11-19T01:44:09;1301.40;;;999.90;;
31732;SDS011;18312;51.486;7.144;2023-11-19T01:46:39;1294.57;;;999.90;;
31732;SDS011;18312;51.486;7.144;2023-11-19T01:49:08;1298.88;;;999.90;;
31732;SDS011;18312;51.486;7.144;2023-11-19T01:51:36;1305.40;;;999.90;;
31732;SDS011;18312;51.486;7.144;2023-11-19T01:54:05;1304.00;;;999.90;;
31732;SDS011;18312;51.486;7.144;2023-11-19T01:56:33;1305.35;;;999.90;;
31732;SDS011;18312;51.486;7.144;2023-11-19T01:59:00;1300.57;;;999.90;;
31732;SDS011;18312;51.486;7.144;2023-11-19T02:01:28;1301.35;;;999.90;;
31732;SDS011;18312;51.486;7.144;2023-11-19T02:03:59;1305.18;;;999.90;;
31732;SDS011;18312;51.486;7.144;2023-11-19T02:06:26;1304.70;;;999.90;;
31732;SDS011;18312;51.486;7.144;2023-11-19T02:08:54;1312.68;;;999.90;;
31732;SDS011;18312;51.486;7.144;2023-11-19T02:11:20;1306.88;;;999.90;;
31732;SDS011;18312;51.486;7.144;2023-11-19T02:13:47;1300.75;;;999.90;;
31732;SDS011;18312;51.486;7.144;2023-11-19T02:16:14;1314.63;;;999.90;;
31732;SDS011;18312;51.486;7.144;2023-11-19T02:18:41;1305.25;;;999.90;;
31732;SDS011;18312;51.486;7.144;2023-11-19T02:21:09;1303.25;;;999.90;;
31732;SDS011;18312;51.486;7.144;2023-11-19T02:23:36;1312.68;;;999.90;;
31732;SDS011;18312;51.486;7.144;2023-11-19T02:26:05;1306.25;;;999.90;;
31732;SDS011;18312;51.486;7.144;2023-11-19T02:28:41;1310.47;;;999.90;;
31732;SDS011;18312;51.486;7.144;2023-11-19T02:31:08;1307.28;;;999.90;;
31732;SDS011;18312;51.486;7.144;2023-11-19T02:33:35;1306.85;;;999.90;;
31732;SDS011;18312;51.486;7.144;2023-11-19T02:36:02;1303.65;;;999.90;;
31732;SDS011;18312;51.486;7.144;2023-11-19T02:38:29;1308.43;;;999.90;;
31732;SDS011;18312;51.486;7.144;2023-11-19T02:40:56;1306.50;;;999.90;;
31732;SDS011;18312;51.486;7.144;2023-11-19T02:43:23;1308.27;;;999.90;;
31732;SDS011;18312;51.486;7.144;2023-11-19T02:45:51;1302.10;;;999.90;;
31732;SDS011;18312;51.486;7.144;2023-11-19T02:48:20;1301.32;;;999.90;;
31732;SDS011;18312;51.486;7.144;2023-11-19T02:50:47;1306.07;;;999.90;;
31732;SDS011;18312;51.486;7.144;2023-11-19T02:53:14;1309.13;;;999.90;;
31732;SDS011;18312;51.486;7.144;2023-11-19T02:55:41;1309.35;;;999.90;;
31732;SDS011;18312;51.486;7.144;2023-11-19T02:58:13;1311.60;;;999.90;;
31732;SDS011;18312;51.486;7.144;2023-11-19T03:00:48;1309.78;;;999.90;;
31732;SDS011;18312;51.486;7.144;2023-11-19T03:03:23;1305.22;;;999.90;;
31732;SDS011;18312;51.486;7.144;2023-11-19T03:05:55;1311.60;;;999.90;;
31732;SDS011;18312;51.486;7.144;2023-11-19T03:08:22;1317.85;;;999.90;;
31732;SDS011;18312;51.486;7.144;2023-11-19T03:10:49;1307.47;;;999.90;;
31732;SDS011;18312;51.486;7.144;2023-11-19T03:13:16;1314.88;;;999.90;;
31732;SDS011;18312;51.486;7.144;2023-11-19T03:15:43;1314.85;;;999.90;;
31732;SDS011;18312;51.486;7.144;2023-11-19T03:18:10;1310.00;;;999.90;;
31732;SDS011;18312;51.486;7.144;2023-11-19T03:20:39;1310.30;;;999.90;;
31732;SDS011;18312;51.486;7.144;2023-11-19T03:23:06;1311.40;;;999.90;;
31732;SDS011;18312;51.486;7.144;2023-11-19T03:25:33;1315.70;;;999.90;;
31732;SDS011;18312;51.486;7.144;2023-11-19T03:28:01;1314.17;;;999.90;;
31732;SDS011;18312;51.486;7.144;2023-11-19T03:30:28;1310.03;;;999.90;;
31732;SDS011;18312;51.486;7.144;2023-11-19T03:32:55;1309.13;;;999.90;;
31732;SDS011;18312;51.486;7.144;2023-11-19T03:35:21;1308.25;;;999.90;;
31732;SDS011;18312;51.486;7.144;2023-11-19T03:37:49;1316.75;;;999.90;;
31732;SDS011;18312;51.486;7.144;2023-11-19T03:40:17;1313.35;;;999.90;;
31732;SDS011;18312;51.486;7.144;2023-11-19T03:42:45;1310.90;;;999.90;;
31732;SDS011;18312;51.486;7.144;2023-11-19T03:45:11;1307.55;;;999.90;;
31732;SDS011;18312;51.486;7.144;2023-11-19T03:47:39;1307.53;;;999.90;;
31732;SDS011;18312;51.486;7.144;2023-11-19T03:50:06;1306.37;;;999.90;;
31732;SDS011;18312;51.486;7.144;2023-11-19T03:52:34;1302.55;;;999.90;;
31732;SDS011;18312;51.486;7.144;2023-11-19T03:55:02;1300.22;;;999.90;;
31732;SDS011;18312;51.486;7.144;2023-11-19T03:57:30;1296.93;;;999.90;;
31732;SDS011;18312;51.486;7.144;2023-11-19T03:59:56;1309.10;;;999.90;;
31732;SDS011;18312;51.486;7.144;2023-11-19T04:02:24;1294.73;;;999.90;;
31732;SDS011;18312;51.486;7.144;2023-11-19T04:04:52;1293.05;;;999.90;;
31732;SDS011;18312;51.486;7.144;2023-11-19T04:07:20;1292.80;;;999.90;;
31732;SDS011;18312;51.486;7.144;2023-11-19T04:09:46;1297.53;;;999.90;;
31732;SDS011;18312;51.486;7.144;2023-11-19T04:12:14;1295.77;;;999.90;;
31732;SDS011;18312;51.486;7.144;2023-11-19T04:14:41;1296.90;;;999.90;;
31732;SDS011;18312;51.486;7.144;2023-11-19T04:17:09;1298.45;;;999.90;;
31732;SDS011;18312;51.486;7.144;2023-11-19T04:19:35;1295.43;;;999.90;;
31732;SDS011;18312;51.486;7.144;2023-11-19T04:22:02;1297.43;;;999.90;;
31732;SDS011;18312;51.486;7.144;2023-11-19T04:24:29;1296.57;;;999.90;;
31732;SDS011;18312;51.486;7.144;2023-11-19T04:26:56;1294.55;;;999.90;;
31732;SDS011;18312;51.486;7.144;2023-11-19T04:29:24;1292.72;;;999.90;;
31732;SDS011;18312;51.486;7.144;2023-11-19T04:31:51;1297.63;;;999.90;;
31732;SDS011;18312;51.486;7.144;2023-11-19T04:34:18;1295.90;;;999.90;;
31732;SDS011;18312;51.486;7.144;2023-11-19T04:36:48;1293.80;;;999.90;;
31732;SDS011;18312;51.486;7.144;2023-11-19T04:39:15;1300.72;;;999.90;;
31732;SDS011;18312;51.486;7.144;2023-11-19T04:41:46;1294.82;;;999.90;;
31732;SDS011;18312;51.486;7.144;2023-11-19T04:44:13;1295.57;;;999.90;;
31732;SDS011;18312;51.486;7.144;2023-11-19T04:46:42;1291.63;;;999.90;;
31732;SDS011;18312;51.486;7.144;2023-11-19T04:49:09;1293.25;;;999.90;;
31732;SDS011;18312;51.486;7.144;2023-11-19T04:51:37;1291.10;;;999.90;;
31732;SDS011;18312;51.486;7.144;2023-11-19T04:54:05;1297.70;;;999.90;;
31732;SDS011;18312;51.486;7.144;2023-11-19T04:56:33;1299.28;;;999.90;;
31732;SDS011;18312;51.486;7.144;2023-11-19T04:59:00;1295.35;;;999.90;;
31732;SDS011;18312;51.486;7.144;2023-11-19T05:01:27;1293.68;;;999.90;;
31732;SDS011;18312;51.486;7.144;2023-11-19T05:03:55;1292.97;;;999.90;;
31732;SDS011;18312;51.486;7.144;2023-11-19T05:06:25;1296.07;;;999.90;;
31732;SDS011;18312;51.486;7.144;2023-11-19T05:08:52;1296.68;;;999.90;;
31732;SDS011;18312;51.486;7.144;2023-11-19T05:11:19;1294.95;;;999.90;;
31732;SDS011;18312;51.486;7.144;2023-11-19T05:13:46;1296.23;;;999.90;;
31732;SDS011;18312;51.486;7.144;2023-11-19T05:16:12;1297.57;;;999.90;;
31732;SDS011;18312;51.486;7.144;2023-11-19T05:18:40;1300.93;;;999.90;;
31732;SDS011;18312;51.486;7.144;2023-11-19T05:21:08;1301.68;;;999.90;;
31732;SDS011;18312;51.486;7.144;2023-11-19T05:23:35;1297.95;;;999.90;;
31732;SDS011;18312;51.486;7.144;2023-11-19T05:26:01;1296.38;;;999.90;;
31732;SDS011;18312;51.486;7.144;2023-11-19T05:28:28;1299.82;;;999.90;;
31732;SDS011;18312;51.486;7.144;2023-11-19T05:30:55;1296.13;;;999.90;;
31732;SDS011;18312;51.486;7.144;2023-11-19T05:33:22;1296.47;;;999.90;;
31732;SDS011;18312;51.486;7.144;2023-11-19T05:35:49;1298.78;;;999.90;;
31732;SDS011;18312;51.486;7.144;2023-11-19T05:38:18;1298.82;;;999.90;;
31732;SDS011;18312;51.486;7.144;2023-11-19T05:40:46;1298.43;;;999.90;;
31732;SDS011;18312;51.486;7.144;2023-11-19T05:43:14;1296.20;;;999.90;;
31732;SDS011;18312;51.486;7.144;2023-11-19T05:45:41;1300.57;;;999.90;;
31732;SDS011;18312;51.486;7.144;2023-11-19T05:48:08;1295.82;;;999.90;;
31732;SDS011;18312;51.486;7.144;2023-11-19T05:50:35;1297.80;;;999.90;;
31732;SDS011;18312;51.486;7.144;2023-11-19T05:53:02;1302.70;;;999.90;;
31732;SDS011;18312;51.486;7.144;2023-11-19T05:55:33;1302.35;;;999.90;;
31732;SDS011;18312;51.486;7.144;2023-11-19T05:58:00;1308.97;;;999.90;;
31732;SDS011;18312;51.486;7.144;2023-11-19T06:00:28;1296.15;;;999.90;;
31732;SDS011;18312;51.486;7.144;2023-11-19T06:02:55;1297.47;;;999.90;;
31732;SDS011;18312;51.486;7.144;2023-11-19T06:05:22;1294.65;;;999.90;;
31732;SDS011;18312;51.486;7.144;2023-11-19T06:07:49;1296.93;;;999.90;;
31732;SDS011;18312;51.486;7.144;2023-11-19T06:10:16;1296.47;;;999.90;;
31732;SDS011;18312;51.486;7.144;2023-11-19T06:12:45;1297.33;;;999.90;;
31732;SDS011;18312;51.486;7.144;2023-11-19T06:15:12;1300.47;;;999.90;;
31732;SDS011;18312;51.486;7.144;2023-11-19T06:17:39;1298.37;;;999.90;;
31732;SDS011;18312;51.486;7.144;2023-11-19T06:20:06;1295.53;;;999.90;;
31732;SDS011;18312;51.486;7.144;2023-11-19T06:22:34;1294.30;;;999.90;;
31732;SDS011;18312;51.486;7.144;2023-11-19T06:25:01;1297.88;;;999.90;;
31732;SDS011;18312;51.486;7.144;2023-11-19T06:27:32;1293.30;;;999.90;;
31732;SDS011;18312;51.486;7.144;2023-11-19T06:30:00;1291.90;;;999.90;;
31732;SDS011;18312;51.486;7.144;2023-11-19T06:32:27;1295.50;;;999.90;;
31732;SDS011;18312;51.486;7.144;2023-11-19T06:34:54;1298.30;;;999.90;;
31732;SDS011;18312;51.486;7.144;2023-11-19T06:37:21;1290.45;;;999.90;;
31732;SDS011;18312;51.486;7.144;2023-11-19T06:39:48;1293.23;;;999.90;;
31732;SDS011;18312;51.486;7.144;2023-11-19T06:42:15;1290.95;;;999.90;;
31732;SDS011;18312;51.486;7.144;2023-11-19T06:44:42;1286.60;;;999.90;;
31732;SDS011;18312;51.486;7.144;2023-11-19T06:47:10;1286.28;;;999.90;;
31732;SDS011;18312;51.486;7.144;2023-11-19T06:49:37;1286.60;;;999.90;;
31732;SDS011;18312;51.486;7.144;2023-11-19T06:52:04;1288.00;;;999.90;;
31732;SDS011;18312;51.486;7.144;2023-11-19T06:54:31;1287.70;;;999.90;;
31732;SDS011;18312;51.486;7.144;2023-11-19T06:56:58;1293.43;;;999.90;;
31732;SDS011;18312;51.486;7.144;2023-11-19T06:59:24;1288.65;;;999.90;;
31732;SDS011;18312;51.486;7.144;2023-11-19T07:01:51;1300.72;;;999.90;;
31732;SDS011;18312;51.486;7.144;2023-11-19T07:04:19;1289.82;;;999.90;;
31732;SDS011;18312;51.486;7.144;2023-11-19T07:06:46;1287.82;;;999.90;;
31732;SDS011;18312;51.486;7.144;2023-11-19T07:09:14;1286.40;;;999.90;;
31732;SDS011;18312;51.486;7.144;2023-11-19T07:11:41;1288.88;;;999.90;;
31732;SDS011;18312;51.486;7.144;2023-11-19T07:14:09;1301.72;;;999.90;;
31732;SDS011;18312;51.486;7.144;2023-11-19T07:16:36;1285.65;;;999.90;;
31732;SDS011;18312;51.486;7.144;2023-11-19T07:19:04;1292.43;;;999.90;;
31732;SDS011;18312;51.486;7.144;2023-11-19T07:21:32;1299.68;;;999.90;;
31732;SDS011;18312;51.486;7.144;2023-11-19T07:24:00;1281.97;;;999.90;;
31732;SDS011;18312;51.486;7.144;2023-11-19T07:26:28;1287.50;;;999.90;;
31732;SDS011;18312;51.486;7.144;2023-11-19T07:28:55;1285.50;;;999.90;;
31732;SDS011;18312;51.486;7.144;2023-11-19T07:31:21;1283.03;;;999.90;;
31732;SDS011;18312;51.486;7.144;2023-11-19T07:33:48;1281.22;;;999.90;;
31732;SDS011;18312;51.486;7.144;2023-11-19T07:36:16;1284.78;;;999.90;;
31732;SDS011;18312;51.486;7.144;2023-11-19T07:38:45;1284.20;;;999.90;;
31732;SDS011;18312;51.486;7.144;2023-11-19T07:41:12;1290.10;;;999.90;;
31732;SDS011;18312;51.486;7.144;2023-11-19T07:43:39;1284.85;;;999.90;;
31732;SDS011;18312;51.486;7.144;2023-11-19T07:46:12;1295.63;;;999.90;;
31732;SDS011;18312;51.486;7.144;2023-11-19T07:48:39;1286.30;;;999.90;;
31732;SDS011;18312;51.486;7.144;2023-11-19T07:51:08;1290.22;;;999.90;;
31732;SDS011;18312;51.486;7.144;2023-11-19T07:53:37;1284.63;;;999.90;;
31732;SDS011;18312;51.486;7.144;2023-11-19T07:56:05;1302.60;;;999.90;;
31732;SDS011;18312;51.486;7.144;2023-11-19T07:58:32;1281.57;;;999.90;;
31732;SDS011;18312;51.486;7.144;2023-11-19T08:01:00;1286.30;;;999.90;;
31732;SDS011;18312;51.486;7.144;2023-11-19T08:03:27;1281.93;;;999.90;;
31732;SDS011;18312;51.486;7.144;2023-11-19T08:05:54;1285.70;;;999.90;;
31732;SDS011;18312;51.486;7.144;2023-11-19T08:08:22;1288.15;;;999.90;;
31732;SDS011;18312;51.486;7.144;2023-11-19T08:10:48;1283.82;;;999.90;;
31732;SDS011;18312;51.486;7.144;2023-11-19T08:13:17;1285.50;;;999.90;;
31732;SDS011;18312;51.486;7.144;2023-11-19T08:15:44;1286.72;;;999.90;;
31732;SDS011;18312;51.486;7.144;2023-11-19T08:18:12;1287.88;;;999.90;;
31732;SDS011;18312;51.486;7.144;2023-11-19T08:20:38;1299.38;;;999.90;;
31732;SDS011;18312;51.486;7.144;2023-11-19T08:23:06;1292.68;;;999.90;;
31732;SDS011;18312;51.486;7.144;2023-11-19T08:25:33;1297.25;;;999.90;;
31732;SDS011;18312;51.486;7.144;2023-11-19T08:28:00;1292.00;;;999.90;;
31732;SDS011;18312;51.486;7.144;2023-11-19T08:30:29;1291.85;;;999.90;;
31732;SDS011;18312;51.486;7.144;2023-11-19T08:32:56;1302.18;;;999.90;;
31732;SDS011;18312;51.486;7.144;2023-11-19T08:35:23;1293.43;;;999.90;;
31732;SDS011;18312;51.486;7.144;2023-11-19T08:37:50;1291.75;;;999.90;;
31732;SDS011;18312;51.486;7.144;2023-11-19T08:40:18;1304.07;;;999.90;;
31732;SDS011;18312;51.486;7.144;2023-11-19T08:42:45;1299.40;;;999.90;;
31732;SDS011;18312;51.486;7.144;2023-11-19T08:45:12;1310.43;;;999.90;;
31732;SDS011;18312;51.486;7.144;2023-11-19T08:47:40;1298.97;;;999.90;;
31732;SDS011;18312;51.486;7.144;2023-11-19T08:50:06;1301.37;;;999.90;;
31732;SDS011;18312;51.486;7.144;2023-11-19T08:52:34;1312.90;;;999.90;;
31732;SDS011;18312;51.486;7.144;2023-11-19T08:55:01;1306.60;;;999.90;;
31732;SDS011;18312;51.486;7.144;2023-11-19T08:57:45;1303.28;;;999.90;;
31732;SDS011;18312;51.486;7.144;2023-11-19T09:00:18;1309.00;;;999.90;;
31732;SDS011;18312;51.486;7.144;2023-11-19T09:02:58;1313.82;;;999.90;;
31732;SDS011;18312;51.486;7.144;2023-11-19T09:05:42;1299.47;;;999.90;;
31732;SDS011;18312;51.486;7.144;2023-11-19T09:08:20;1303.38;;;999.90;;
31732;SDS011;18312;51.486;7.144;2023-11-19T09:10:54;1311.10;;;999.90;;
31732;SDS011;18312;51.486;7.144;2023-11-19T09:16:37;1309.97;;;999.90;;
31732;SDS011;18312;51.486;7.144;2023-11-19T09:19:22;1316.60;;;999.90;;
31732;SDS011;18312;51.486;7.144;2023-11-19T09:21:58;1306.25;;;999.90;;
31732;SDS011;18312;51.486;7.144;2023-11-19T09:24:26;1306.72;;;999.90;;
31732;SDS011;18312;51.486;7.144;2023-11-19T09:27:08;1303.95;;;999.90;;
31732;SDS011;18312;51.486;7.144;2023-11-19T09:29:50;1316.45;;;999.90;;
31732;SDS011;18312;51.486;7.144;2023-11-19T09:32:27;1314.80;;;999.90;;
31732;SDS011;18312;51.486;7.144;2023-11-19T09:38:04;1324.88;;;999.90;;
31732;SDS011;18312;51.486;7.144;2023-11-19T09:40:36;1319.97;;;999.90;;
31732;SDS011;18312;51.486;7.144;2023-11-19T09:43:03;1319.07;;;999.90;;
31732;SDS011;18312;51.486;7.144;2023-11-19T09:45:31;1328.95;;;999.90;;
31732;SDS011;18312;51.486;7.144;2023-11-19T09:48:07;1321.32;;;999.90;;
31732;SDS011;18312;51.486;7.144;2023-11-19T09:50:43;1323.05;;;999.90;;
31732;SDS011;18312;51.486;7.144;2023-11-19T09:53:28;1320.82;;;999.90;;
31732;SDS011;18312;51.486;7.144;2023-11-19T09:55:55;1327.47;;;999.90;;
31732;SDS011;18312;51.486;7.144;2023-11-19T09:58:23;1326.82;;;999.90;;
31732;SDS011;18312;51.486;7.144;2023-11-19T10:00:50;1332.93;;;999.90;;
31732;SDS011;18312;51.486;7.144;2023-11-19T10:03:18;1331.07;;;999.90;;
31732;SDS011;18312;51.486;7.144;2023-11-19T10:05:46;1329.30;;;999.90;;
31732;SDS011;18312;51.486;7.144;2023-11-19T10:08:13;1335.82;;;999.90;;
31732;SDS011;18312;51.486;7.144;2023-11-19T10:10:41;1332.22;;;999.90;;
31732;SDS011;18312;51.486;7.144;2023-11-19T10:13:08;1339.55;;;999.90;;
31732;SDS011;18312;51.486;7.144;2023-11-19T10:15:36;1340.07;;;999.90;;
31732;SDS011;18312;51.486;7.144;2023-11-19T10:18:03;1334.53;;;999.90;;
31732;SDS011;18312;51.486;7.144;2023-11-19T10:20:36;1341.40;;;999.90;;
31732;SDS011;18312;51.486;7.144;2023-11-19T10:23:10;1332.95;;;999.90;;
31732;SDS011;18312;51.486;7.144;2023-11-19T10:25:43;1324.43;;;999.90;;
31732;SDS011;18312;51.486;7.144;2023-11-19T10:28:09;1320.82;;;999.90;;
31732;SDS011;18312;51.486;7.144;2023-11-19T10:31:08;1328.63;;;999.90;;
31732;SDS011;18312;51.486;7.144;2023-11-19T10:33:59;1326.13;;;999.90;;
31732;SDS011;18312;51.486;7.144;2023-11-19T10:37:25;1329.03;;;999.90;;
31732;SDS011;18312;51.486;7.144;2023-11-19T10:44:04;1324.10;;;999.90;;
31732;SDS011;18312;51.486;7.144;2023-11-19T10:46:37;1322.43;;;999.90;;
31732;SDS011;18312;51.486;7.144;2023-11-19T10:49:06;1331.90;;;999.90;;
31732;SDS011;18312;51.486;7.144;2023-11-19T10:51:33;1327.80;;;999.90;;
31732;SDS011;18312;51.486;7.144;2023-11-19T10:54:02;1323.85;;;999.90;;
31732;SDS011;18312;51.486;7.144;2023-11-19T10:56:44;1324.25;;;999.90;;
31732;SDS011;18312;51.486;7.144;2023-11-19T10:59:15;1321.72;;;999.90;;
31732;SDS011;18312;51.486;7.144;2023-11-19T11:01:45;1335.28;;;999.90;;
31732;SDS011;18312;51.486;7.144;2023-11-19T11:04:14;1331.57;;;999.90;;
31732;SDS011;18312;51.486;7.144;2023-11-19T11:06:45;1343.10;;;999.90;;
31732;SDS011;18312;51.486;7.144;2023-11-19T11:09:13;1329.47;;;999.90;;
31732;SDS011;18312;51.486;7.144;2023-11-19T11:11:43;1328.75;;;999.90;;
31732;SDS011;18312;51.486;7.144;2023-11-19T11:14:15;1330.03;;;999.90;;
31732;SDS011;18312;51.486;7.144;2023-11-19T11:16:45;1329.68;;;999.90;;
31732;SDS011;18312;51.486;7.144;2023-11-19T11:19:14;1332.90;;;999.90;;
31732;SDS011;18312;51.486;7.144;2023-11-19T11:21:43;1327.60;;;999.90;;
31732;SDS011;18312;51.486;7.144;2023-11-19T11:30:28;1331.95;;;999.90;;
31732;SDS011;18312;51.486;7.144;2023-11-19T11:33:06;1339.40;;;999.90;;
31732;SDS011;18312;51.486;7.144;2023-11-19T11:35:59;1338.47;;;999.90;;
31732;SDS011;18312;51.486;7.144;2023-11-19T11:38:45;1331.43;;;999.90;;
31732;SDS011;18312;51.486;7.144;2023-11-19T11:41:30;1331.40;;;999.90;;
31732;SDS011;18312;51.486;7.144;2023-11-19T11:43:59;1336.68;;;999.90;;
31732;SDS011;18312;51.486;7.144;2023-11-19T11:49:28;1334.70;;;999.90;;
31732;SDS011;18312;51.486;7.144;2023-11-19T11:51:57;1339.00;;;999.90;;
31732;SDS011;18312;51.486;7.144;2023-11-19T11:54:28;1348.35;;;999.90;;
31732;SDS011;18312;51.486;7.144;2023-11-19T11:57:03;1346.22;;;999.90;;
31732;SDS011;18312;51.486;7.144;2023-11-19T11:59:41;1341.63;;;999.90;;
31732;SDS011;18312;51.486;7.144;2023-11-19T12:02:11;1339.72;;;999.90;;
31732;SDS011;18312;51.486;7.144;2023-11-19T12:04:39;1342.03;;;999.90;;
31732;SDS011;18312;51.486;7.144;2023-11-19T12:07:06;1336.53;;;999.90;;
31732;SDS011;18312;51.486;7.144;2023-11-19T12:09:36;1336.97;;;999.90;;
31732;SDS011;18312;51.486;7.144;2023-11-19T12:12:18;1340.25;;;999.90;;
31732;SDS011;18312;51.486;7.144;2023-11-19T12:15:05;1338.85;;;999.90;;
31732;SDS011;18312;51.486;7.144;2023-11-19T12:20:25;1335.83;;;999.90;;
31732;SDS011;18312;51.486;7.144;2023-11-19T12:23:13;1338.18;;;999.90;;
31732;SDS011;18312;51.486;7.144;2023-11-19T12:25:55;1337.22;;;999.90;;
31732;SDS011;18312;51.486;7.144;2023-11-19T12:28:26;1338.10;;;999.90;;
31732;SDS011;18312;51.486;7.144;2023-11-19T12:31:06;1336.10;;;999.90;;
31732;SDS011;18312;51.486;7.144;2023-11-19T12:33:35;1340.07;;;999.90;;
31732;SDS011;18312;51.486;7.144;2023-11-19T12:36:03;1337.95;;;999.90;;
31732;SDS011;18312;51.486;7.144;2023-11-19T12:38:45;1339.97;;;999.90;;
31732;SDS011;18312;51.486;7.144;2023-11-19T12:41:14;1336.63;;;999.90;;
31732;SDS011;18312;51.486;7.144;2023-11-19T12:44:21;1343.95;;;999.90;;
31732;SDS011;18312;51.486;7.144;2023-11-19T12:47:24;1337.00;;;999.90;;
31732;SDS011;18312;51.486;7.144;2023-11-19T12:53:46;1341.37;;;999.90;;
31732;SDS011;18312;51.486;7.144;2023-11-19T12:57:00;1344.25;;;999.90;;
31732;SDS011;18312;51.486;7.144;2023-11-19T12:59:28;1335.03;;;999.90;;
31732;SDS011;18312;51.486;7.144;2023-11-19T13:01:59;1337.18;;;999.90;;
31732;SDS011;18312;51.486;7.144;2023-11-19T13:04:43;1328.85;;;999.90;;
31732;SDS011;18312;51.486;7.144;2023-11-19T13:07:11;1327.57;;;999.90;;
31732;SDS011;18312;51.486;7.144;2023-11-19T13:09:40;1319.83;;;999.90;;
31732;SDS011;18312;51.486;7.144;2023-11-19T13:12:20;1320.25;;;999.90;;
31732;SDS011;18312;51.486;7.144;2023-11-19T13:14:48;1319.03;;;999.90;;
31732;SDS011;18312;51.486;7.144;2023-11-19T13:17:17;1310.35;;;999.90;;
31732;SDS011;18312;51.486;7.144;2023-11-19T13:19:52;1304.72;;;999.90;;
31732;SDS011;18312;51.486;7.144;2023-11-19T13:22:27;1307.28;;;999.90;;
31732;SDS011;18312;51.486;7.144;2023-11-19T13:24:55;1307.22;;;999.90;;
31732;SDS011;18312;51.486;7.144;2023-11-19T13:27:24;1307.43;;;999.90;;
31732;SDS011;18312;51.486;7.144;2023-11-19T13:29:55;1305.05;;;999.90;;
31732;SDS011;18312;51.486;7.144;2023-11-19T13:32:27;1311.32;;;999.90;;
31732;SDS011;18312;51.486;7.144;2023-11-19T13:34:56;1309.95;;;999.90;;
31732;SDS011;18312;51.486;7.144;2023-11-19T13:37:23;1310.63;;;999.90;;
31732;SDS011;18312;51.486;7.144;2023-11-19T13:39:51;1312.65;;;999.90;;
31732;SDS011;18312;51.486;7.144;2023-11-19T13:42:23;1313.47;;;999.90;;
31732;SDS011;18312;51.486;7.144;2023-11-19T13:44:50;1312.22;;;999.90;;
31732;SDS011;18312;51.486;7.144;2023-11-19T13:47:17;1313.88;;;999.90;;
31732;SDS011;18312;51.486;7.144;2023-11-19T13:49:57;1317.43;;;999.90;;
31732;SDS011;18312;51.486;7.144;2023-11-19T13:52:35;1313.77;;;999.90;;
31732;SDS011;18312;51.486;7.144;2023-11-19T13:55:06;1315.95;;;999.90;;
31732;SDS011;18312;51.486;7.144;2023-11-19T13:57:34;1324.47;;;999.90;;
31732;SDS011;18312;51.486;7.144;2023-11-19T14:00:01;1308.05;;;999.90;;
31732;SDS011;18312;51.486;7.144;2023-11-19T14:02:31;1313.40;;;999.90;;
31732;SDS011;18312;51.486;7.144;2023-11-19T14:05:00;1323.47;;;999.90;;
31732;SDS011;18312;51.486;7.144;2023-11-19T14:07:27;1321.30;;;999.90;;
31732;SDS011;18312;51.486;7.144;2023-11-19T14:09:56;1315.60;;;999.90;;
31732;SDS011;18312;51.486;7.144;2023-11-19T14:12:26;1319.50;;;999.90;;
31732;SDS011;18312;51.486;7.144;2023-11-19T14:14:56;1316.95;;;999.90;;
31732;SDS011;18312;51.486;7.144;2023-11-19T14:17:23;1315.07;;;999.90;;
31732;SDS011;18312;51.486;7.144;2023-11-19T14:19:50;1309.90;;;999.90;;
31732;SDS011;18312;51.486;7.144;2023-11-19T14:22:19;1308.82;;;999.90;;
31732;SDS011;18312;51.486;7.144;2023-11-19T14:24:46;1315.60;;;999.90;;